KCOT/COT METAR and TAF weather

Enter ICAO airport designator
Station Type Date Time Source
KCOT METAR 2022/06/27 07:53 UTC NOAA

KCOT 270753Z AUTO 15004KT 10SM CLR 26/19 A3008 RMK AO2 SLP176 T02610194


Station Type Date Time Source
KCOT Decoded METAR 2022/06/27 07:53 UTC NOAA

COTULLA-LASALLE COUNTY AIRPORT , TX, United States (KCOT) 28-27N 099-13W 140M
Jun 27, 2022 - 03:53 AM EDT / 2022.06.27 0753 UTC
Wind: from the SSE (150 degrees) at 5 MPH (4 KT):0
Visibility: 10 mile(s):0
Sky conditions: clear
Temperature: 79.0 F (26.1 C)
Dew Point: 66.9 F (19.4 C)
Relative Humidity: 66%
Pressure (altimeter): 30.08 in. Hg (1018 hPa)
ob: KCOT 270753Z AUTO 15004KT 10SM CLR 26/19 A3008 RMK AO2 SLP176 T02610194
cycle: 8

Station Type Date Time Source
KCOT TAF 2022/06/27 06:39 UTC NOAA

TAF KCOT 270536Z 2706/2806 VRB04KT P6SM FEW250
FM271900 06008KT P6SM VCSH SCT050 BKN100 PROB30 2720/2801 5SM TSRA BKN040CB
FM280300 06006KT P6SM SCT150 BKN250

Example: see airport list